createdAt,value
2022-11-01T00:02:10.156Z,62.78
2022-11-01T00:04:37.550Z,62.53
2022-11-01T00:07:04.117Z,61.83
2022-11-01T00:09:31.159Z,66.88
2022-11-01T00:11:58.635Z,61.50
2022-11-01T00:14:25.675Z,64.45
2022-11-01T00:16:52.866Z,62.88
2022-11-01T00:19:20.172Z,59.15
2022-11-01T00:21:47.390Z,62.60
2022-11-01T00:24:14.573Z,59.58
2022-11-01T00:26:41.858Z,61.95
2022-11-01T00:29:09.178Z,60.25
2022-11-01T00:31:36.254Z,62.78
2022-11-01T00:34:06.052Z,61.45
2022-11-01T00:36:34.449Z,57.58
2022-11-01T00:39:01.744Z,59.08
2022-11-01T00:41:29.003Z,65.68
2022-11-01T00:43:55.997Z,58.80
2022-11-01T00:46:22.994Z,60.00
2022-11-01T00:48:50.276Z,58.15
2022-11-01T00:51:17.313Z,60.35
2022-11-01T00:53:44.477Z,54.38
2022-11-01T00:56:11.651Z,58.40
2022-11-01T00:58:38.779Z,56.47
2022-11-01T01:01:06.215Z,48.38
2022-11-01T01:03:33.032Z,73.03
2022-11-01T01:06:00.258Z,52.90
2022-11-01T01:08:27.812Z,54.20
2022-11-01T01:10:55.685Z,44.13
2022-11-01T01:13:23.587Z,39.75
2022-11-01T01:15:50.496Z,46.00
2022-11-01T01:18:18.172Z,51.85
2022-11-01T01:20:45.521Z,47.97
2022-11-01T01:23:12.904Z,54.20
2022-11-01T01:25:42.218Z,83.80
2022-11-01T01:28:10.204Z,77.82
2022-11-01T01:30:41.284Z,67.22
2022-11-01T01:33:09.514Z,55.42
2022-11-01T01:35:39.102Z,51.22
2022-11-01T01:38:07.370Z,47.78
2022-11-01T01:40:35.218Z,48.03
2022-11-01T01:43:02.377Z,49.35
2022-11-01T01:45:31.382Z,48.03
2022-11-01T01:48:12.996Z,50.95
2022-11-01T01:50:40.132Z,44.35
2022-11-01T01:53:21.269Z,48.25
2022-11-01T01:55:58.016Z,54.85
2022-11-01T01:58:30.993Z,45.70
2022-11-01T02:00:58.944Z,42.83
2022-11-01T02:03:30.117Z,46.65
2022-11-01T02:06:03.164Z,44.95
2022-11-01T02:08:30.733Z,44.05
2022-11-01T02:11:01.525Z,43.17
2022-11-01T02:13:30.386Z,47.55
2022-11-01T02:16:31.347Z,47.88
2022-11-01T02:19:16.988Z,40.88
2022-11-01T02:21:57.385Z,43.00
2022-11-01T02:24:24.694Z,45.55
2022-11-01T02:27:16.174Z,47.38
2022-11-01T02:29:51.487Z,44.83
2022-11-01T02:32:35.200Z,45.17
2022-11-01T02:35:19.673Z,45.53
2022-11-01T02:38:08.793Z,46.95
2022-11-01T02:40:46.215Z,50.63
2022-11-01T02:43:37.735Z,48.30
2022-11-01T02:46:26.593Z,43.95
2022-11-01T02:48:55.362Z,47.22
2022-11-01T02:51:24.127Z,42.38
2022-11-01T02:53:51.395Z,48.25
2022-11-01T02:56:19.620Z,45.22
2022-11-01T02:58:49.491Z,47.35
2022-11-01T03:01:24.091Z,41.78
2022-11-01T03:03:54.248Z,41.15
2022-11-01T03:06:36.417Z,38.53
2022-11-01T03:09:08.195Z,38.03
2022-11-01T03:12:02.031Z,34.05
2022-11-01T03:14:35.108Z,32.17
2022-11-01T03:17:22.256Z,27.40
2022-11-01T03:19:57.134Z,32.20
2022-11-01T03:22:45.065Z,33.40
2022-11-01T03:25:44.706Z,31.30
2022-11-01T03:28:35.834Z,36.55
2022-11-01T03:31:09.535Z,36.08
2022-11-01T03:33:42.824Z,31.45
2022-11-01T03:36:14.908Z,34.47
2022-11-01T03:38:56.727Z,33.20
2022-11-01T03:41:26.677Z,34.35
2022-11-01T03:43:55.024Z,33.08
2022-11-01T03:46:22.291Z,29.35
2022-11-01T03:48:49.500Z,35.70
2022-11-01T03:51:16.551Z,26.83
2022-11-01T03:53:43.574Z,29.60
2022-11-01T03:56:11.284Z,29.08
2022-11-01T03:58:45.577Z,35.65
2022-11-01T04:01:16.025Z,27.13
2022-11-01T04:03:43.976Z,27.20
2022-11-01T04:06:11.586Z,31.00
2022-11-01T04:08:38.858Z,25.95
2022-11-01T04:11:05.982Z,28.80
2022-11-01T04:13:32.678Z,28.23
2022-11-01T04:16:18.440Z,26.48
2022-11-01T04:19:04.171Z,22.85
2022-11-01T04:21:32.717Z,23.02
2022-11-01T04:24:00.197Z,23.17
2022-11-01T04:26:27.372Z,22.55
2022-11-01T04:28:57.742Z,21.67
2022-11-01T04:31:29.502Z,25.70
2022-11-01T04:33:57.470Z,23.40
2022-11-01T04:36:24.798Z,23.67
2022-11-01T04:38:53.653Z,22.30
2022-11-01T04:41:22.100Z,23.08
2022-11-01T04:43:50.546Z,21.38
2022-11-01T04:46:17.612Z,17.50
2022-11-01T04:48:45.061Z,23.88
2022-11-01T04:51:12.622Z,24.45
2022-11-01T04:53:39.840Z,19.33
2022-11-01T04:56:09.384Z,18.05
2022-11-01T04:58:41.419Z,18.83
2022-11-01T05:01:12.857Z,16.63
2022-11-01T05:03:40.015Z,18.48
2022-11-01T05:06:07.296Z,17.23
2022-11-01T05:08:34.298Z,22.00
2022-11-01T05:11:01.476Z,17.15
2022-11-01T05:13:28.537Z,19.17
2022-11-01T05:16:18.036Z,17.23
2022-11-01T05:18:42.847Z,17.15
2022-11-01T05:21:09.917Z,19.02
2022-11-01T05:23:37.152Z,18.33
2022-11-01T05:26:05.006Z,18.77
2022-11-01T05:28:32.146Z,22.25
2022-11-01T05:30:59.537Z,16.58
2022-11-01T05:33:26.916Z,18.35
2022-11-01T05:35:54.190Z,17.48
2022-11-01T05:38:20.768Z,17.65
2022-11-01T05:40:47.895Z,19.63
2022-11-01T05:43:15.633Z,19.05
2022-11-01T05:45:43.050Z,23.38
2022-11-01T05:48:10.079Z,25.83
2022-11-01T05:50:37.363Z,22.95
2022-11-01T05:53:08.318Z,21.50
2022-11-01T05:55:36.917Z,21.02
2022-11-01T05:58:04.376Z,23.45
2022-11-01T06:00:32.163Z,21.90
2022-11-01T06:03:01.988Z,22.08
2022-11-01T06:05:30.290Z,21.25
2022-11-01T06:07:58.104Z,22.55
2022-11-01T06:10:25.182Z,24.17
2022-11-01T06:12:55.813Z,29.20
2022-11-01T06:15:23.046Z,27.15
2022-11-01T06:17:56.409Z,31.95
2022-11-01T06:20:23.821Z,36.40
2022-11-01T06:22:50.893Z,37.22
2022-11-01T06:25:18.257Z,39.40
2022-11-01T06:27:45.567Z,38.65
2022-11-01T06:32:53.336Z,40.80
2022-11-01T06:35:20.307Z,34.05
2022-11-01T06:37:47.652Z,31.52
2022-11-01T06:40:14.707Z,28.50
2022-11-01T06:42:46.358Z,28.13
2022-11-01T06:45:14.335Z,29.02
2022-11-01T06:47:45.981Z,21.55
2022-11-01T06:50:13.124Z,18.10
2022-11-01T06:52:40.193Z,20.35
2022-11-01T06:55:07.715Z,15.40
2022-11-01T06:57:34.781Z,21.80
2022-11-01T07:00:01.885Z,15.80
2022-11-01T07:02:30.105Z,14.05
2022-11-01T07:04:57.254Z,15.77
2022-11-01T07:07:24.441Z,12.80
2022-11-01T07:09:51.665Z,13.63
2022-11-01T07:12:19.321Z,14.02
2022-11-01T07:14:46.522Z,13.43
2022-11-01T07:17:13.595Z,11.82
2022-11-01T07:19:40.689Z,13.70
2022-11-01T07:22:08.829Z,11.73
2022-11-01T07:24:35.960Z,11.05
2022-11-01T07:27:03.196Z,19.00
2022-11-01T07:29:30.332Z,12.73
2022-11-01T07:31:57.305Z,12.25
2022-11-01T07:34:24.393Z,10.32
2022-11-01T07:36:54.560Z,12.23
2022-11-01T07:39:21.639Z,11.45
2022-11-01T07:41:51.730Z,9.68
2022-11-01T07:44:18.898Z,15.95
2022-11-01T07:46:46.045Z,11.40
2022-11-01T07:49:13.062Z,12.55
2022-11-01T07:51:40.055Z,12.13
2022-11-01T07:54:07.087Z,10.75
2022-11-01T07:56:34.678Z,12.68
2022-11-01T07:59:01.864Z,12.00
2022-11-01T08:01:28.624Z,8.70
2022-11-01T08:03:55.686Z,9.35
2022-11-01T08:09:09.984Z,9.20
2022-11-01T08:11:37.121Z,7.45
2022-11-01T08:14:06.092Z,10.60
2022-11-01T08:16:34.356Z,8.88
2022-11-01T08:19:01.609Z,9.63
2022-11-01T08:21:28.957Z,8.23
2022-11-01T08:23:55.621Z,11.15
2022-11-01T08:26:22.710Z,6.22
2022-11-01T08:28:51.139Z,5.38
2022-11-01T08:31:18.484Z,8.35
2022-11-01T08:33:45.978Z,6.15
2022-11-01T08:36:13.292Z,5.28
2022-11-01T08:38:40.401Z,6.45
2022-11-01T08:41:07.703Z,6.88
2022-11-01T08:43:38.026Z,10.10
2022-11-01T08:46:07.950Z,7.05
2022-11-01T08:48:35.122Z,9.55
2022-11-01T08:51:03.363Z,6.18
2022-11-01T08:53:30.396Z,7.95
2022-11-01T08:55:57.771Z,9.60
2022-11-01T08:58:25.458Z,11.75
2022-11-01T09:00:52.521Z,9.90
2022-11-01T09:03:19.907Z,12.52
2022-11-01T09:05:47.154Z,11.40
2022-11-01T09:08:14.219Z,11.65
2022-11-01T09:10:41.409Z,11.07
2022-11-01T09:13:08.645Z,10.27
2022-11-01T09:15:35.778Z,9.25
2022-11-01T09:18:07.754Z,8.68
2022-11-01T09:20:36.719Z,11.05
2022-11-01T09:23:04.233Z,11.00
2022-11-01T09:25:31.333Z,11.07
2022-11-01T09:27:58.515Z,8.70
2022-11-01T09:30:26.665Z,11.10
2022-11-01T09:32:53.676Z,8.85
2022-11-01T09:35:20.659Z,8.27
2022-11-01T09:37:47.835Z,8.70
2022-11-01T09:40:16.378Z,9.25
2022-11-01T09:42:45.691Z,8.90
2022-11-01T09:45:26.009Z,9.27
2022-11-01T09:47:56.547Z,8.52
2022-11-01T09:50:34.398Z,11.65
2022-11-01T09:53:04.199Z,8.27
2022-11-01T09:55:59.878Z,10.80
2022-11-01T09:58:51.916Z,11.27
2022-11-01T10:01:39.844Z,15.35
2022-11-01T10:04:16.562Z,13.40
2022-11-01T10:06:56.089Z,16.35
2022-11-01T10:10:03.848Z,16.20
2022-11-01T10:12:42.772Z,18.95
2022-11-01T10:15:38.739Z,16.95
2022-11-01T10:18:24.249Z,20.35
2022-11-01T10:20:50.988Z,17.02
2022-11-01T10:23:21.904Z,16.70
2022-11-01T10:25:53.060Z,14.60
2022-11-01T10:28:23.479Z,15.57
2022-11-01T10:30:59.586Z,15.82
2022-11-01T10:33:34.287Z,15.82
2022-11-01T10:36:27.290Z,18.55
2022-11-01T10:41:51.400Z,17.65
2022-11-01T10:44:27.562Z,18.52
2022-11-01T10:46:56.893Z,21.88
2022-11-01T10:49:53.016Z,20.38
2022-11-01T10:52:25.683Z,21.27
2022-11-01T10:54:55.085Z,18.93
2022-11-01T10:57:24.766Z,21.10
2022-11-01T10:59:51.323Z,21.20
2022-11-01T11:02:53.659Z,20.90
2022-11-01T11:05:22.818Z,16.77
2022-11-01T11:07:49.528Z,15.77
2022-11-01T11:10:24.877Z,19.73
2022-11-01T11:12:56.919Z,15.23
2022-11-01T11:15:36.373Z,17.35
2022-11-01T11:18:05.693Z,21.05
2022-11-01T11:20:34.370Z,39.17
2022-11-01T11:23:02.582Z,18.13
2022-11-01T11:25:41.203Z,16.20
2022-11-01T11:28:22.623Z,18.35
2022-11-01T11:30:49.393Z,18.48
2022-11-01T11:33:18.190Z,19.77
2022-11-01T11:35:54.814Z,19.58
2022-11-01T11:38:40.610Z,20.67
2022-11-01T11:41:09.919Z,21.48
2022-11-01T11:43:41.119Z,22.33
2022-11-01T11:46:15.956Z,21.98
2022-11-01T11:48:52.473Z,20.27
2022-11-01T11:51:24.833Z,19.77
2022-11-01T11:54:07.491Z,19.60
2022-11-01T11:56:34.147Z,20.88
2022-11-01T11:59:08.724Z,22.38
2022-11-01T12:01:36.062Z,23.95
2022-11-01T12:04:16.107Z,26.45
2022-11-01T12:06:46.244Z,25.65
2022-11-01T12:09:46.798Z,28.67
2022-11-01T12:12:18.446Z,29.10
2022-11-01T12:14:45.449Z,27.38
2022-11-01T12:17:33.029Z,25.30
2022-11-01T12:20:07.948Z,33.38
2022-11-01T12:22:36.357Z,28.80
2022-11-01T12:25:13.519Z,31.85
2022-11-01T12:27:47.597Z,32.25
2022-11-01T12:30:21.518Z,29.35
2022-11-01T12:32:54.862Z,30.95
2022-11-01T12:35:27.227Z,34.15
2022-11-01T12:38:00.802Z,31.30
2022-11-01T12:40:36.961Z,36.70
2022-11-01T12:43:42.504Z,32.40
2022-11-01T12:46:36.087Z,25.88
2022-11-01T12:49:14.861Z,28.70
2022-11-01T12:51:49.674Z,27.30
2022-11-01T12:54:27.491Z,28.63
2022-11-01T12:56:56.275Z,29.65
2022-11-01T12:59:37.701Z,28.00
2022-11-01T13:02:31.313Z,32.00
2022-11-01T13:05:09.187Z,31.17
2022-11-01T13:07:52.387Z,33.40
2022-11-01T13:10:29.251Z,35.88
2022-11-01T13:13:18.920Z,31.13
2022-11-01T13:16:04.572Z,33.40
2022-11-01T13:21:01.762Z,33.75
2022-11-01T13:23:43.670Z,36.10
2022-11-01T13:26:39.394Z,35.83
2022-11-01T13:29:22.013Z,37.28
2022-11-01T13:32:10.760Z,34.00
2022-11-01T13:34:46.058Z,38.13
2022-11-01T13:37:36.923Z,39.78
2022-11-01T13:40:03.822Z,37.83
2022-11-01T13:42:38.916Z,34.85
2022-11-01T13:45:24.491Z,35.97
2022-11-01T13:48:05.332Z,33.33
2022-11-01T13:51:07.284Z,36.75
2022-11-01T13:53:37.090Z,42.67
2022-11-01T13:56:22.034Z,40.33
2022-11-01T13:58:49.472Z,38.50
2022-11-01T14:01:39.178Z,36.78
2022-11-01T14:04:14.936Z,39.42
2022-11-01T14:06:49.322Z,37.03
2022-11-01T14:09:28.046Z,31.60
2022-11-01T14:11:56.431Z,34.92
2022-11-01T14:14:32.932Z,33.65
2022-11-01T14:17:25.819Z,38.75
2022-11-01T14:19:56.093Z,34.35
2022-11-01T14:22:23.511Z,33.97
2022-11-01T14:24:56.519Z,34.70
2022-11-01T14:27:35.437Z,31.50
2022-11-01T14:30:15.068Z,34.67
2022-11-01T14:32:45.109Z,30.55
2022-11-01T14:35:12.148Z,36.33
2022-11-01T14:37:49.140Z,33.17
2022-11-01T14:40:38.462Z,35.00
2022-11-01T14:43:20.029Z,36.25
2022-11-01T14:45:53.057Z,36.95
2022-11-01T14:48:49.587Z,33.47
2022-11-01T14:51:33.298Z,34.70
2022-11-01T14:54:15.905Z,39.67
2022-11-01T14:56:50.085Z,36.78
2022-11-01T14:59:22.713Z,39.83
2022-11-01T15:01:55.942Z,38.80
2022-11-01T15:04:29.870Z,35.60
2022-11-01T15:06:59.121Z,38.78
2022-11-01T15:09:29.170Z,41.90
2022-11-01T15:12:06.120Z,42.75
2022-11-01T15:14:44.800Z,52.08
2022-11-01T15:17:23.582Z,48.20
2022-11-01T15:19:55.763Z,37.90
2022-11-01T15:22:26.744Z,37.08
2022-11-01T15:24:57.894Z,43.33
2022-11-01T15:27:36.743Z,38.47
2022-11-01T15:30:05.395Z,41.40
2022-11-01T15:32:35.301Z,36.47
2022-11-01T15:35:06.335Z,36.95
2022-11-01T15:37:33.714Z,37.78
2022-11-01T15:40:02.169Z,34.00
2022-11-01T15:42:34.194Z,36.53
2022-11-01T15:45:26.942Z,38.63
2022-11-01T15:47:54.466Z,38.65
2022-11-01T15:50:21.629Z,36.15
2022-11-01T15:52:48.743Z,34.97
2022-11-01T15:55:24.547Z,36.40
2022-11-01T15:58:07.418Z,46.45
2022-11-01T16:00:39.063Z,38.72
2022-11-01T16:03:16.712Z,38.67
2022-11-01T16:05:58.632Z,40.80
2022-11-01T16:08:34.165Z,45.42
2022-11-01T16:11:01.905Z,50.13
2022-11-01T16:13:31.377Z,62.03
2022-11-01T16:16:11.143Z,58.47
2022-11-01T16:18:41.984Z,65.47
2022-11-01T16:21:21.657Z,65.05
2022-11-01T16:23:59.622Z,78.20
2022-11-01T16:26:27.865Z,78.90
2022-11-01T16:28:55.317Z,111.43
2022-11-01T16:31:23.086Z,81.28
2022-11-01T16:33:50.737Z,71.97
2022-11-01T16:36:20.371Z,64.93
2022-11-01T16:38:49.949Z,58.10
2022-11-01T16:41:28.610Z,56.90
2022-11-01T16:43:58.430Z,63.95
2022-11-01T16:46:27.617Z,74.82
2022-11-01T16:49:16.849Z,63.95
2022-11-01T16:51:44.199Z,64.32
2022-11-01T16:54:13.117Z,64.15
2022-11-01T16:56:48.427Z,68.97
2022-11-01T16:59:33.652Z,57.75
2022-11-01T17:02:02.714Z,57.30
2022-11-01T17:04:30.286Z,70.45
2022-11-01T17:07:00.211Z,64.07
2022-11-01T17:09:32.909Z,61.40
2022-11-01T17:12:00.174Z,68.32
2022-11-01T17:14:27.286Z,73.88
2022-11-01T17:16:56.606Z,69.10
2022-11-01T17:19:29.879Z,69.93
2022-11-01T17:21:59.679Z,55.25
2022-11-01T17:24:29.481Z,67.97
2022-11-01T17:27:00.897Z,73.68
2022-11-01T17:29:28.031Z,75.50
2022-11-01T17:31:55.273Z,73.63
2022-11-01T17:34:22.663Z,101.18
2022-11-01T17:36:50.537Z,80.88
2022-11-01T17:39:17.902Z,77.60
2022-11-01T17:41:44.964Z,78.25
2022-11-01T17:44:13.011Z,88.85
2022-11-01T17:46:40.356Z,85.38
2022-11-01T17:49:07.539Z,82.97
2022-11-01T17:51:34.797Z,84.13
2022-11-01T17:54:01.934Z,94.63
2022-11-01T17:56:29.074Z,88.10
2022-11-01T17:58:56.092Z,89.40
2022-11-01T18:01:23.295Z,79.35
2022-11-01T18:03:50.699Z,76.07
2022-11-01T18:06:17.888Z,64.18
2022-11-01T18:08:50.594Z,61.35
2022-11-01T18:11:38.702Z,59.22
2022-11-01T18:14:42.028Z,57.97
2022-11-01T18:17:14.916Z,59.40
2022-11-01T18:19:57.136Z,54.33
2022-11-01T18:22:36.511Z,73.45
2022-11-01T18:25:39.846Z,59.65
2022-11-01T18:28:16.375Z,59.70
2022-11-01T18:31:38.951Z,53.47
2022-11-01T18:34:33.355Z,50.40
2022-11-01T18:39:58.153Z,52.15
2022-11-01T18:42:26.181Z,48.60
2022-11-01T18:44:58.276Z,47.72
2022-11-01T18:47:34.156Z,47.97
2022-11-01T18:50:05.461Z,49.10
2022-11-01T18:52:33.668Z,52.10
2022-11-01T18:55:00.898Z,50.67
2022-11-01T18:57:29.325Z,50.03
2022-11-01T18:59:56.194Z,49.90
2022-11-01T19:02:28.405Z,56.22
2022-11-01T19:05:14.274Z,50.53
2022-11-01T19:08:08.984Z,48.20
2022-11-01T19:10:29.062Z,49.88
2022-11-01T19:12:56.688Z,55.58
2022-11-01T19:15:31.134Z,50.88
2022-11-01T19:18:02.891Z,48.03
2022-11-01T19:20:41.241Z,49.70
2022-11-01T19:23:24.878Z,56.55
2022-11-01T19:25:52.458Z,54.50
2022-11-01T19:28:31.108Z,56.25
2022-11-01T19:31:21.127Z,63.25
2022-11-01T19:33:50.921Z,58.78
2022-11-01T19:36:20.693Z,63.85
2022-11-01T19:38:53.177Z,63.88
2022-11-01T19:41:30.606Z,64.38
2022-11-01T19:44:02.431Z,80.30
2022-11-01T19:46:30.348Z,89.68
2022-11-01T19:48:57.401Z,80.82
2022-11-01T19:51:24.659Z,125.40
2022-11-01T19:53:53.795Z,118.68
2022-11-01T19:56:23.400Z,93.47
2022-11-01T19:59:00.631Z,67.65
2022-11-01T20:01:40.913Z,72.72
2022-11-01T20:04:30.096Z,59.15
2022-11-01T20:07:17.182Z,62.03
2022-11-01T20:09:44.273Z,77.25
2022-11-01T20:12:12.070Z,66.78
2022-11-01T20:14:40.390Z,62.97
2022-11-01T20:17:07.629Z,64.80
2022-11-01T20:19:34.996Z,83.38
2022-11-01T20:22:01.830Z,59.80
2022-11-01T20:24:29.080Z,48.78
2022-11-01T20:26:56.460Z,45.75
2022-11-01T20:29:23.720Z,50.05
2022-11-01T20:31:50.770Z,44.65
2022-11-01T20:34:18.023Z,47.60
2022-11-01T20:37:02.161Z,40.88
2022-11-01T20:39:32.356Z,42.95
2022-11-01T20:41:59.813Z,40.33
2022-11-01T20:44:27.120Z,36.90
2022-11-01T20:46:54.350Z,37.90
2022-11-01T20:49:21.607Z,36.13
2022-11-01T20:51:48.689Z,38.83
2022-11-01T20:54:17.982Z,41.53
2022-11-01T20:56:45.344Z,37.80
2022-11-01T20:59:13.776Z,38.50
2022-11-01T21:01:43.060Z,42.95
2022-11-01T21:04:12.178Z,48.75
2022-11-01T21:06:39.604Z,45.25
2022-11-01T21:09:36.709Z,47.20
2022-11-01T21:12:25.726Z,39.65
2022-11-01T21:14:55.452Z,47.90
2022-11-01T21:17:22.522Z,45.58
2022-11-01T21:19:54.583Z,44.38
2022-11-01T21:22:22.233Z,47.78
2022-11-01T21:24:49.981Z,42.67
2022-11-01T21:27:23.156Z,41.03
2022-11-01T21:29:50.836Z,42.30
2022-11-01T21:32:35.162Z,40.38
2022-11-01T21:35:22.364Z,44.35
2022-11-01T21:37:54.452Z,39.15
2022-11-01T21:40:29.382Z,38.25
2022-11-01T21:42:58.117Z,39.03
2022-11-01T21:45:32.191Z,39.05
2022-11-01T21:48:21.071Z,37.67
2022-11-01T21:50:48.111Z,39.40
2022-11-01T21:53:15.150Z,36.80
2022-11-01T21:55:42.385Z,38.63
2022-11-01T21:58:09.489Z,33.22
2022-11-01T22:00:36.550Z,34.15
2022-11-01T22:03:03.958Z,33.63
2022-11-01T22:05:31.359Z,34.38
2022-11-01T22:07:58.478Z,36.17
2022-11-01T22:10:25.478Z,33.45
2022-11-01T22:12:52.599Z,32.40
2022-11-01T22:15:19.709Z,35.67
2022-11-01T22:17:46.673Z,32.83
2022-11-01T22:20:13.999Z,36.47
2022-11-01T22:22:41.102Z,40.35
2022-11-01T22:25:08.460Z,36.30
2022-11-01T22:27:35.606Z,34.95
2022-11-01T22:30:04.442Z,35.47
2022-11-01T22:32:31.510Z,35.80
2022-11-01T22:34:58.611Z,35.78
2022-11-01T22:37:27.578Z,32.70
2022-11-01T22:39:54.806Z,33.78
2022-11-01T22:42:22.337Z,31.92
2022-11-01T22:44:51.124Z,27.55
2022-11-01T22:47:27.080Z,34.85
2022-11-01T22:49:56.201Z,29.65
2022-11-01T22:52:23.255Z,29.42
2022-11-01T22:55:00.557Z,42.45
2022-11-01T22:57:30.164Z,30.27
2022-11-01T23:00:21.232Z,33.65
2022-11-01T23:02:48.435Z,33.40
2022-11-01T23:05:24.413Z,30.73
2022-11-01T23:07:56.863Z,31.08
2022-11-01T23:10:30.805Z,28.88
2022-11-01T23:13:31.701Z,29.40
2022-11-01T23:16:04.384Z,31.83
2022-11-01T23:18:33.765Z,32.80
2022-11-01T23:21:05.556Z,28.55
2022-11-01T23:23:35.408Z,31.15
2022-11-01T23:26:03.019Z,30.15
2022-11-01T23:28:31.011Z,33.47
2022-11-01T23:30:58.232Z,25.40
2022-11-01T23:33:32.979Z,29.10
2022-11-01T23:36:01.381Z,28.40
2022-11-01T23:38:51.539Z,24.65
2022-11-01T23:41:23.910Z,32.42
2022-11-01T23:43:54.844Z,26.38
2022-11-01T23:46:22.039Z,27.67
2022-11-01T23:48:49.642Z,25.73
2022-11-01T23:51:21.647Z,27.60
2022-11-01T23:53:53.411Z,23.80
2022-11-01T23:56:22.372Z,29.58
2022-11-01T23:59:00.157Z,27.83
